createdAt,value
2017-09-22T00:04:31.600Z,23.8
2017-09-22T00:09:36.992Z,23.8
2017-09-22T00:14:42.053Z,23.8
2017-09-22T00:19:47.441Z,23.8
2017-09-22T00:24:52.501Z,23.8
2017-09-22T00:29:57.558Z,23.8
2017-09-22T00:35:02.612Z,23.8
2017-09-22T00:40:07.670Z,23.8
2017-09-22T00:45:12.394Z,23.8
2017-09-22T00:50:16.782Z,23.8
2017-09-22T00:55:22.510Z,23.7
2017-09-22T01:00:27.573Z,23.8
2017-09-22T01:05:32.969Z,23.7
2017-09-22T01:10:37.358Z,23.7
2017-09-22T01:15:41.948Z,23.7
2017-09-22T01:20:46.670Z,23.7
2017-09-22T01:25:52.401Z,23.7
2017-09-22T01:30:58.125Z,23.7
2017-09-22T01:36:02.850Z,23.7
2017-09-22T01:41:07.569Z,23.7
2017-09-22T01:46:12.627Z,23.7
2017-09-22T01:51:17.349Z,23.7
2017-09-22T01:56:22.740Z,23.7
2017-09-22T02:01:27.127Z,23.7
2017-09-22T02:06:32.856Z,23.7
2017-09-22T02:11:37.907Z,23.7
2017-09-22T02:16:42.965Z,23.7
2017-09-22T02:21:48.363Z,23.7
2017-09-22T02:26:53.418Z,23.7
2017-09-22T02:31:58.822Z,23.7
2017-09-22T02:37:04.214Z,23.7
2017-09-22T02:42:08.940Z,23.7
2017-09-22T02:47:14.333Z,23.7
2017-09-22T02:52:19.723Z,23.6
2017-09-22T02:57:24.781Z,23.6
2017-09-22T03:02:30.509Z,23.6
2017-09-22T03:07:36.235Z,23.6
2017-09-22T03:12:41.963Z,23.6
2017-09-22T03:17:47.356Z,23.6
2017-09-22T03:22:52.753Z,23.6
2017-09-22T03:27:57.812Z,23.6
2017-09-22T03:33:02.868Z,23.6
2017-09-22T03:38:08.261Z,23.6
2017-09-22T03:43:13.319Z,23.6
2017-09-22T03:48:18.377Z,23.6
2017-09-22T03:53:23.439Z,23.6
2017-09-22T03:58:28.826Z,23.6
2017-09-22T04:03:34.553Z,23.6
2017-09-22T04:08:39.950Z,23.6
2017-09-22T04:13:44.335Z,23.6
2017-09-22T04:18:49.113Z,23.6
2017-09-22T04:23:53.832Z,23.5
2017-09-22T04:28:58.554Z,23.6
2017-09-22T04:34:02.939Z,23.5
2017-09-22T04:39:08.331Z,23.5
2017-09-22T04:44:14.058Z,23.6
2017-09-22T04:49:18.781Z,23.5
2017-09-22T04:54:23.168Z,23.5
2017-09-22T04:59:28.230Z,23.5
2017-09-22T05:04:33.621Z,23.5
2017-09-22T05:09:39.016Z,23.5
2017-09-22T05:14:43.741Z,23.5
2017-09-22T05:19:48.463Z,23.6
2017-09-22T05:24:54.076Z,23.6
2017-09-22T05:29:59.680Z,23.6
2017-09-22T05:35:05.409Z,23.6
2017-09-22T05:40:10.801Z,23.6
2017-09-22T05:45:15.190Z,23.6
2017-09-22T05:50:20.918Z,23.6
2017-09-22T05:55:25.646Z,23.6
2017-09-22T06:00:31.039Z,23.6
2017-09-22T06:05:35.760Z,23.6
2017-09-22T06:10:40.821Z,23.6
2017-09-22T06:15:45.880Z,23.6
2017-09-22T06:20:50.943Z,23.6
2017-09-22T06:25:56.560Z,23.6
2017-09-22T06:31:01.953Z,23.7
2017-09-22T06:36:07.371Z,23.7
2017-09-22T06:41:12.757Z,23.7
2017-09-22T06:46:18.489Z,23.7
2017-09-22T06:51:24.240Z,23.7
2017-09-22T06:56:29.948Z,23.7
2017-09-22T07:01:36.025Z,23.7
2017-09-22T07:06:40.742Z,23.8
2017-09-22T07:11:46.472Z,23.8
2017-09-22T07:16:52.207Z,23.8
2017-09-22T07:21:57.932Z,23.8
2017-09-22T07:27:02.991Z,23.8
2017-09-22T07:32:08.722Z,23.8
2017-09-22T07:37:14.129Z,23.8
2017-09-22T07:42:19.205Z,23.8
2017-09-22T07:47:24.603Z,23.8
2017-09-22T07:52:30.227Z,23.8
2017-09-22T07:57:35.308Z,23.8
2017-09-22T08:02:41.075Z,23.8
2017-09-22T08:07:45.469Z,23.8
2017-09-22T08:12:51.199Z,23.8
2017-09-22T08:17:56.262Z,23.8
2017-09-22T08:23:01.656Z,23.8
2017-09-22T08:28:07.054Z,23.8
2017-09-22T08:33:12.780Z,23.8
2017-09-22T08:38:17.508Z,23.8
2017-09-22T08:43:23.241Z,23.9
2017-09-22T08:48:28.301Z,23.9
2017-09-22T08:53:33.701Z,23.9
2017-09-22T08:58:39.098Z,24.1
2017-09-22T09:03:44.166Z,24.2
2017-09-22T09:08:49.563Z,24.3
2017-09-22T09:13:55.300Z,24.5
2017-09-22T09:19:01.037Z,24.5
2017-09-22T09:24:05.769Z,24.6
2017-09-22T09:29:10.507Z,24.7
2017-09-22T09:34:15.910Z,24.8
2017-09-22T09:39:20.976Z,25
2017-09-22T09:44:25.722Z,25.1
2017-09-22T09:49:31.117Z,25.1
2017-09-22T09:54:35.850Z,25.2
2017-09-22T09:59:41.260Z,25.1
2017-09-22T10:04:46.994Z,25.1
2017-09-22T10:09:51.728Z,25
2017-09-22T10:14:56.796Z,25
2017-09-22T10:20:00.864Z,24.9
2017-09-22T10:25:06.927Z,24.8
2017-09-22T10:30:11.991Z,24.8
2017-09-22T10:35:16.718Z,24.7
2017-09-22T10:40:21.448Z,24.7
2017-09-22T10:45:26.845Z,24.7
2017-09-22T10:50:32.242Z,24.6
2017-09-22T10:55:37.641Z,24.5
2017-09-22T11:00:42.707Z,24.5
2017-09-22T11:05:48.437Z,24.5
2017-09-22T11:10:54.507Z,24.5
2017-09-22T11:15:59.570Z,24.4
2017-09-22T11:21:03.966Z,24.4
2017-09-22T11:26:09.025Z,24.4
2017-09-22T11:31:14.420Z,24.4
2017-09-22T11:36:20.485Z,24.4
2017-09-22T11:41:25.552Z,24.4
2017-09-22T11:46:30.948Z,24.4
2017-09-22T11:51:36.679Z,24.3
2017-09-22T11:56:42.409Z,24.3
2017-09-22T12:01:47.470Z,24.3
2017-09-22T12:06:52.869Z,24.3
2017-09-22T12:11:58.263Z,24.3
2017-09-22T12:17:03.327Z,24.3
2017-09-22T12:22:08.053Z,24.3
2017-09-22T12:27:13.113Z,24.3
2017-09-22T12:32:18.512Z,24.3
2017-09-22T12:37:23.910Z,24.3
2017-09-22T12:42:28.634Z,24.3
2017-09-22T12:47:33.699Z,24.3
2017-09-22T12:52:38.759Z,24.3
2017-09-22T12:57:44.159Z,24.3
2017-09-22T13:02:49.219Z,24.2
2017-09-22T13:07:54.612Z,24.2
2017-09-22T13:13:00.012Z,24.2
2017-09-22T13:18:05.409Z,24.2
2017-09-22T13:23:10.469Z,24.2
2017-09-22T13:28:15.531Z,24.2
2017-09-22T13:33:20.927Z,24.2
2017-09-22T13:38:25.988Z,24.2
2017-09-22T13:43:31.384Z,24.2
2017-09-22T13:48:37.448Z,24.2
2017-09-22T13:53:43.178Z,24.2
2017-09-22T13:58:48.573Z,24.2
2017-09-22T14:03:54.306Z,24.2
2017-09-22T14:09:00.369Z,24.2
2017-09-22T14:14:06.116Z,24.2
2017-09-22T14:19:11.879Z,24.2
2017-09-22T14:24:16.941Z,24.2
2017-09-22T14:29:22.003Z,24.2
2017-09-22T14:34:27.400Z,24.2
2017-09-22T14:39:31.796Z,24.2
2017-09-22T14:44:36.858Z,24.2
2017-09-22T14:49:41.921Z,24.2
2017-09-22T14:54:46.996Z,24.2
2017-09-22T14:59:52.597Z,24.2
2017-09-22T15:04:57.664Z,24.2
2017-09-22T15:10:02.727Z,24.1
2017-09-22T15:15:08.129Z,24.1
2017-09-22T15:20:12.853Z,24.1
2017-09-22T15:25:18.284Z,24.1
2017-09-22T15:30:24.215Z,24.1
2017-09-22T15:35:29.531Z,24.1
2017-09-22T15:40:35.562Z,24.1
2017-09-22T15:45:40.963Z,24.1
2017-09-22T15:50:47.031Z,24.1
2017-09-22T15:55:52.092Z,24.1
2017-09-22T16:00:57.490Z,24.1
2017-09-22T16:06:02.889Z,24.1
2017-09-22T16:11:07.948Z,24.1
2017-09-22T16:16:13.688Z,24
2017-09-22T16:21:18.749Z,23.9
2017-09-22T16:26:24.148Z,24
2017-09-22T16:31:29.546Z,24
2017-09-22T16:36:34.955Z,24
2017-09-22T16:41:40.011Z,24
2017-09-22T16:46:45.073Z,24
2017-09-22T16:51:50.489Z,24
2017-09-22T16:56:55.886Z,24
2017-09-22T17:02:01.616Z,24
2017-09-22T17:07:06.675Z,24
2017-09-22T17:12:10.729Z,24
2017-09-22T17:17:16.458Z,24
2017-09-22T17:22:21.853Z,24
2017-09-22T17:27:27.579Z,24
2017-09-22T17:32:32.971Z,24
2017-09-22T17:37:38.363Z,24
2017-09-22T17:42:43.421Z,24
2017-09-22T17:47:48.478Z,24
2017-09-22T17:52:53.536Z,24
2017-09-22T17:57:58.260Z,24
2017-09-22T18:03:02.983Z,24
2017-09-22T18:08:08.048Z,24
2017-09-22T18:13:13.918Z,24
2017-09-22T18:18:18.993Z,24
2017-09-22T18:23:23.739Z,24
2017-09-22T18:28:28.801Z,24.1
2017-09-22T18:33:33.231Z,24.1
2017-09-22T18:38:37.930Z,24.1
2017-09-22T18:43:43.667Z,24.1
2017-09-22T18:48:48.405Z,24.1
2017-09-22T18:53:54.482Z,24.1
2017-09-22T18:58:59.550Z,24.1
2017-09-22T19:04:04.950Z,24.1
2017-09-22T19:09:10.021Z,24.1
2017-09-22T19:14:14.461Z,24.1
2017-09-22T19:19:20.201Z,24.1
2017-09-22T19:24:25.262Z,24.1
2017-09-22T19:29:29.657Z,24.1
2017-09-22T19:34:34.728Z,24.1
2017-09-22T19:39:39.788Z,24.1
2017-09-22T19:44:44.518Z,24.1
2017-09-22T19:49:48.919Z,24.1
2017-09-22T19:54:53.992Z,24.1
2017-09-22T19:59:59.258Z,24
2017-09-22T20:05:03.648Z,24
2017-09-22T20:10:09.058Z,24
2017-09-22T20:15:14.797Z,24
2017-09-22T20:20:19.866Z,24
2017-09-22T20:25:25.268Z,24
2017-09-22T20:30:30.010Z,24
2017-09-22T20:35:35.408Z,24
2017-09-22T20:40:41.149Z,24
2017-09-22T20:45:46.547Z,24
2017-09-22T20:50:52.285Z,24
2017-09-22T20:55:57.353Z,24
2017-09-22T21:01:02.486Z,24
2017-09-22T21:06:07.553Z,24
2017-09-22T21:11:12.956Z,24
2017-09-22T21:16:18.688Z,24
2017-09-22T21:21:24.091Z,24
2017-09-22T21:26:29.161Z,24
2017-09-22T21:31:33.883Z,24
2017-09-22T21:36:38.947Z,24
2017-09-22T21:41:44.345Z,24
2017-09-22T21:46:49.740Z,24
2017-09-22T21:51:54.464Z,24
2017-09-22T21:56:59.860Z,24
2017-09-22T22:02:05.253Z,24
2017-09-22T22:07:10.311Z,23.9
2017-09-22T22:12:15.370Z,23.9
2017-09-22T22:17:19.756Z,23.9
2017-09-22T22:22:24.816Z,23.9
2017-09-22T22:27:30.214Z,23.9
2017-09-22T22:32:35.609Z,23.9
2017-09-22T22:37:40.330Z,23.9
2017-09-22T22:42:45.392Z,23.9
2017-09-22T22:47:50.782Z,23.9
2017-09-22T22:52:56.175Z,23.9
2017-09-22T22:58:01.237Z,23.9
2017-09-22T23:03:05.961Z,23.9
2017-09-22T23:08:11.068Z,23.9
2017-09-22T23:13:16.461Z,23.9
2017-09-22T23:18:21.194Z,23.9
2017-09-22T23:23:26.918Z,23.9
2017-09-22T23:28:31.640Z,23.9
2017-09-22T23:33:36.367Z,23.9
2017-09-22T23:38:41.423Z,23.9
2017-09-22T23:43:46.146Z,23.8
2017-09-22T23:48:51.205Z,23.8
2017-09-22T23:53:56.597Z,23.8
2017-09-22T23:59:00.983Z,23.8
